Standish, Maine
Current Conditions -  °F | °C
As of 12:51 AM on Sunday 21 Dec 2014 (Local Time) from KPWM Reporting Station
Overcast Overcast  
Wind Chill: -12°   Ceiling: 800
Heat Index: -6°   Visibility: 10mi
Dew Point: -8°   Wind: 13mph
Humidity: 85%   Direction: 360°N
Pressure: 30.34"   Gusts: NA
Location:  43.74°N, 70.55°W
Report Text: KPWM 210551Z AUTO 36011KT 10SM OVC008 M06/M08 A3034 RMK AO2 SLP276 T10561078 11017 21056 57015
Loading
Personal Weather Stations






























Interactive Weather Map New forecast layout! Learn more

10-Day Weather Forecast

Advertisements
Track Severe Weather on mobile